sensor_id;sensor_type;location;lat;lon;timestamp;pressure;altitude;pressure_sealevel;temperature;humidity
41706;BME280;27385;51.096;17.190;2022-09-13T00:00:49;100168.36;;;10.04;85.36
41706;BME280;27385;51.096;17.190;2022-09-13T00:03:32;100163.59;;;10.01;85.52
41706;BME280;27385;51.096;17.190;2022-09-13T00:06:10;100157.30;;;9.99;85.57
41706;BME280;27385;51.096;17.190;2022-09-13T00:08:43;100152.02;;;9.98;85.65
41706;BME280;27385;51.096;17.190;2022-09-13T00:11:19;100150.17;;;9.97;85.63
41706;BME280;27385;51.096;17.190;2022-09-13T00:13:53;100147.45;;;9.96;85.84
41706;BME280;27385;51.096;17.190;2022-09-13T00:16:27;100147.61;;;9.96;86.21
41706;BME280;27385;51.096;17.190;2022-09-13T00:19:00;100148.63;;;9.94;86.06
41706;BME280;27385;51.096;17.190;2022-09-13T00:21:31;100147.57;;;9.92;86.20
41706;BME280;27385;51.096;17.190;2022-09-13T00:24:04;100145.95;;;9.89;85.99
41706;BME280;27385;51.096;17.190;2022-09-13T00:26:35;100145.77;;;9.88;86.08
41706;BME280;27385;51.096;17.190;2022-09-13T00:29:06;100140.33;;;9.87;86.07
41706;BME280;27385;51.096;17.190;2022-09-13T00:31:38;100133.80;;;9.85;86.21
41706;BME280;27385;51.096;17.190;2022-09-13T00:34:11;100135.61;;;9.81;86.15
41706;BME280;27385;51.096;17.190;2022-09-13T00:36:43;100133.21;;;9.78;86.18
41706;BME280;27385;51.096;17.190;2022-09-13T00:39:14;100133.17;;;9.76;86.30
41706;BME280;27385;51.096;17.190;2022-09-13T00:41:46;100126.85;;;9.75;86.21
41706;BME280;27385;51.096;17.190;2022-09-13T00:44:52;100125.34;;;9.73;86.08
41706;BME280;27385;51.096;17.190;2022-09-13T00:47:27;100127.11;;;9.70;86.09
41706;BME280;27385;51.096;17.190;2022-09-13T00:50:04;100129.43;;;9.66;86.19
41706;BME280;27385;51.096;17.190;2022-09-13T00:52:37;100131.02;;;9.63;85.97
41706;BME280;27385;51.096;17.190;2022-09-13T00:55:15;100128.31;;;9.59;86.16
41706;BME280;27385;51.096;17.190;2022-09-13T00:57:48;100118.90;;;9.58;86.04
41706;BME280;27385;51.096;17.190;2022-09-13T01:00:21;100118.63;;;9.56;86.13
41706;BME280;27385;51.096;17.190;2022-09-13T01:02:54;100120.27;;;9.53;85.90
41706;BME280;27385;51.096;17.190;2022-09-13T01:05:30;100118.70;;;9.50;86.16
41706;BME280;27385;51.096;17.190;2022-09-13T01:08:04;100124.64;;;9.46;86.16
41706;BME280;27385;51.096;17.190;2022-09-13T01:10:52;100123.20;;;9.41;86.14
41706;BME280;27385;51.096;17.190;2022-09-13T01:13:29;100125.70;;;9.39;86.15
41706;BME280;27385;51.096;17.190;2022-09-13T01:16:02;100123.73;;;9.36;86.05
41706;BME280;27385;51.096;17.190;2022-09-13T01:18:34;100123.06;;;9.32;86.05
41706;BME280;27385;51.096;17.190;2022-09-13T01:21:30;100121.55;;;9.28;86.07
41706;BME280;27385;51.096;17.190;2022-09-13T01:24:43;100119.20;;;9.25;86.02
41706;BME280;27385;51.096;17.190;2022-09-13T01:27:35;100119.69;;;9.20;86.03
41706;BME280;27385;51.096;17.190;2022-09-13T01:30:20;100118.02;;;9.15;86.07
41706;BME280;27385;51.096;17.190;2022-09-13T01:33:08;100115.44;;;9.11;86.08
41706;BME280;27385;51.096;17.190;2022-09-13T01:35:53;100112.89;;;9.08;86.09
41706;BME280;27385;51.096;17.190;2022-09-13T01:38:42;100109.59;;;9.05;85.96
41706;BME280;27385;51.096;17.190;2022-09-13T01:41:26;100109.79;;;9.01;85.86
41706;BME280;27385;51.096;17.190;2022-09-13T01:44:09;100109.19;;;8.98;86.03
41706;BME280;27385;51.096;17.190;2022-09-13T01:46:49;100100.84;;;8.96;86.02
41706;BME280;27385;51.096;17.190;2022-09-13T01:49:28;100097.95;;;8.97;86.26
41706;BME280;27385;51.096;17.190;2022-09-13T01:52:04;100097.04;;;8.96;86.25
41706;BME280;27385;51.096;17.190;2022-09-13T01:54:46;100098.35;;;8.94;86.09
41706;BME280;27385;51.096;17.190;2022-09-13T01:57:24;100092.83;;;8.91;86.34
41706;BME280;27385;51.096;17.190;2022-09-13T02:00:03;100084.02;;;8.91;86.32
41706;BME280;27385;51.096;17.190;2022-09-13T02:02:38;100082.81;;;8.89;86.39
41706;BME280;27385;51.096;17.190;2022-09-13T02:05:16;100077.96;;;8.88;86.33
41706;BME280;27385;51.096;17.190;2022-09-13T02:07:54;100075.77;;;8.87;86.46
41706;BME280;27385;51.096;17.190;2022-09-13T02:10:32;100071.69;;;8.86;86.86
41706;BME280;27385;51.096;17.190;2022-09-13T02:13:07;100066.27;;;8.86;87.01
41706;BME280;27385;51.096;17.190;2022-09-13T02:15:44;100060.98;;;8.85;87.03
41706;BME280;27385;51.096;17.190;2022-09-13T02:18:19;100054.61;;;8.82;87.24
41706;BME280;27385;51.096;17.190;2022-09-13T02:20:54;100051.11;;;8.80;87.28
41706;BME280;27385;51.096;17.190;2022-09-13T02:23:33;100046.63;;;8.79;87.43
41706;BME280;27385;51.096;17.190;2022-09-13T02:26:07;100046.02;;;8.79;87.12
41706;BME280;27385;51.096;17.190;2022-09-13T02:28:42;100048.26;;;8.77;87.18
41706;BME280;27385;51.096;17.190;2022-09-13T02:31:20;100042.83;;;8.76;87.31
41706;BME280;27385;51.096;17.190;2022-09-13T02:33:57;100048.36;;;8.75;87.27
41706;BME280;27385;51.096;17.190;2022-09-13T02:36:33;100044.41;;;8.74;87.41
41706;BME280;27385;51.096;17.190;2022-09-13T02:39:07;100044.94;;;8.73;87.56
41706;BME280;27385;51.096;17.190;2022-09-13T02:41:45;100040.44;;;8.71;87.52
41706;BME280;27385;51.096;17.190;2022-09-13T02:44:23;100033.88;;;8.70;87.52
41706;BME280;27385;51.096;17.190;2022-09-13T02:47:05;100032.98;;;8.69;87.41
41706;BME280;27385;51.096;17.190;2022-09-13T02:49:51;100032.60;;;8.67;87.43
41706;BME280;27385;51.096;17.190;2022-09-13T02:52:33;100028.35;;;8.65;87.39
41706;BME280;27385;51.096;17.190;2022-09-13T02:55:17;100025.63;;;8.63;87.49
41706;BME280;27385;51.096;17.190;2022-09-13T02:57:57;100026.05;;;8.63;87.24
41706;BME280;27385;51.096;17.190;2022-09-13T03:00:29;100023.26;;;8.62;87.24
41706;BME280;27385;51.096;17.190;2022-09-13T03:03:03;100022.48;;;8.59;87.39
41706;BME280;27385;51.096;17.190;2022-09-13T03:05:36;100016.60;;;8.58;87.32
41706;BME280;27385;51.096;17.190;2022-09-13T03:08:09;100016.36;;;8.58;87.39
41706;BME280;27385;51.096;17.190;2022-09-13T03:10:50;100009.23;;;8.59;87.59
41706;BME280;27385;51.096;17.190;2022-09-13T03:13:35;100004.16;;;8.58;87.72
41706;BME280;27385;51.096;17.190;2022-09-13T03:16:32;99999.52;;;8.57;87.84
41706;BME280;27385;51.096;17.190;2022-09-13T03:19:27;99993.45;;;8.58;87.81
41706;BME280;27385;51.096;17.190;2022-09-13T03:22:15;99993.23;;;8.58;87.99
41706;BME280;27385;51.096;17.190;2022-09-13T03:25:00;99983.23;;;8.57;88.13
41706;BME280;27385;51.096;17.190;2022-09-13T03:27:40;99982.31;;;8.57;87.98
41706;BME280;27385;51.096;17.190;2022-09-13T03:30:16;99985.90;;;8.56;88.21
41706;BME280;27385;51.096;17.190;2022-09-13T03:32:51;99978.61;;;8.56;88.13
41706;BME280;27385;51.096;17.190;2022-09-13T03:35:31;99979.16;;;8.56;88.15
41706;BME280;27385;51.096;17.190;2022-09-13T03:38:08;99977.52;;;8.55;88.16
41706;BME280;27385;51.096;17.190;2022-09-13T03:40:44;99975.91;;;8.55;88.30
41706;BME280;27385;51.096;17.190;2022-09-13T03:43:21;99971.38;;;8.56;88.45
41706;BME280;27385;51.096;17.190;2022-09-13T03:45:58;99967.14;;;8.56;88.45
41706;BME280;27385;51.096;17.190;2022-09-13T03:48:33;99965.21;;;8.57;88.52
41706;BME280;27385;51.096;17.190;2022-09-13T03:51:07;99958.63;;;8.58;88.77
41706;BME280;27385;51.096;17.190;2022-09-13T03:53:43;99955.77;;;8.60;88.75
41706;BME280;27385;51.096;17.190;2022-09-13T03:56:17;99957.09;;;8.60;88.86
41706;BME280;27385;51.096;17.190;2022-09-13T03:58:51;99958.67;;;8.60;88.81
41706;BME280;27385;51.096;17.190;2022-09-13T04:01:24;99961.15;;;8.60;88.86
41706;BME280;27385;51.096;17.190;2022-09-13T04:03:56;99965.88;;;8.59;89.00
41706;BME280;27385;51.096;17.190;2022-09-13T04:06:27;99966.92;;;8.58;88.78
41706;BME280;27385;51.096;17.190;2022-09-13T04:08:59;99964.85;;;8.56;88.80
41706;BME280;27385;51.096;17.190;2022-09-13T04:11:30;99962.27;;;8.54;88.83
41706;BME280;27385;51.096;17.190;2022-09-13T04:14:02;99965.11;;;8.52;88.89
41706;BME280;27385;51.096;17.190;2022-09-13T04:16:34;99967.23;;;8.50;88.85
41706;BME280;27385;51.096;17.190;2022-09-13T04:19:05;99969.41;;;8.48;89.04
41706;BME280;27385;51.096;17.190;2022-09-13T04:21:36;99964.15;;;8.46;89.05
41706;BME280;27385;51.096;17.190;2022-09-13T04:24:11;99961.72;;;8.45;88.88
41706;BME280;27385;51.096;17.190;2022-09-13T04:26:44;99959.77;;;8.44;89.02
41706;BME280;27385;51.096;17.190;2022-09-13T04:29:18;99962.25;;;8.44;89.15
41706;BME280;27385;51.096;17.190;2022-09-13T04:31:50;99957.90;;;8.44;89.12
41706;BME280;27385;51.096;17.190;2022-09-13T04:34:23;99964.13;;;8.45;89.35
41706;BME280;27385;51.096;17.190;2022-09-13T04:36:55;99965.73;;;8.46;89.45
41706;BME280;27385;51.096;17.190;2022-09-13T04:39:26;99964.38;;;8.48;89.54
41706;BME280;27385;51.096;17.190;2022-09-13T04:41:58;99960.92;;;8.50;89.53
41706;BME280;27385;51.096;17.190;2022-09-13T04:44:31;99963.36;;;8.53;89.69
41706;BME280;27385;51.096;17.190;2022-09-13T04:47:03;99961.60;;;8.56;89.96
41706;BME280;27385;51.096;17.190;2022-09-13T04:49:38;99958.59;;;8.59;89.92
41706;BME280;27385;51.096;17.190;2022-09-13T04:52:09;99955.77;;;8.61;90.11
41706;BME280;27385;51.096;17.190;2022-09-13T04:54:40;99954.88;;;8.65;90.36
41706;BME280;27385;51.096;17.190;2022-09-13T04:57:12;99958.73;;;8.67;90.35
41706;BME280;27385;51.096;17.190;2022-09-13T04:59:43;99957.73;;;8.71;90.54
41706;BME280;27385;51.096;17.190;2022-09-13T05:02:14;99958.86;;;8.76;90.70
41706;BME280;27385;51.096;17.190;2022-09-13T05:04:45;99951.75;;;8.79;90.95
41706;BME280;27385;51.096;17.190;2022-09-13T05:07:17;99951.97;;;8.85;90.76
41706;BME280;27385;51.096;17.190;2022-09-13T05:09:48;99951.70;;;8.88;91.10
41706;BME280;27385;51.096;17.190;2022-09-13T05:12:21;99957.81;;;8.93;91.22
41706;BME280;27385;51.096;17.190;2022-09-13T05:14:53;99959.08;;;8.98;91.50
41706;BME280;27385;51.096;17.190;2022-09-13T05:17:24;99960.29;;;9.03;91.64
41706;BME280;27385;51.096;17.190;2022-09-13T05:19:56;99962.92;;;9.09;92.05
41706;BME280;27385;51.096;17.190;2022-09-13T05:22:27;99967.02;;;9.16;92.37
41706;BME280;27385;51.096;17.190;2022-09-13T05:24:59;99963.77;;;9.22;92.41
41706;BME280;27385;51.096;17.190;2022-09-13T05:27:30;99960.11;;;9.29;92.66
41706;BME280;27385;51.096;17.190;2022-09-13T05:30:02;99962.04;;;9.37;92.90
41706;BME280;27385;51.096;17.190;2022-09-13T05:32:33;99957.46;;;9.43;92.82
41706;BME280;27385;51.096;17.190;2022-09-13T05:35:07;99963.23;;;9.50;92.88
41706;BME280;27385;51.096;17.190;2022-09-13T05:37:39;99968.09;;;9.54;93.03
41706;BME280;27385;51.096;17.190;2022-09-13T05:40:12;99960.17;;;9.59;93.15
41706;BME280;27385;51.096;17.190;2022-09-13T05:42:43;99956.77;;;9.64;93.06
41706;BME280;27385;51.096;17.190;2022-09-13T05:45:15;99956.59;;;9.68;93.00
41706;BME280;27385;51.096;17.190;2022-09-13T05:47:51;99956.41;;;9.73;93.22
41706;BME280;27385;51.096;17.190;2022-09-13T05:50:22;99948.55;;;9.77;93.18
41706;BME280;27385;51.096;17.190;2022-09-13T05:52:54;99945.08;;;9.82;93.11
41706;BME280;27385;51.096;17.190;2022-09-13T05:55:26;99944.98;;;9.89;93.54
41706;BME280;27385;51.096;17.190;2022-09-13T05:57:58;99942.45;;;9.94;93.79
41706;BME280;27385;51.096;17.190;2022-09-13T06:00:30;99942.32;;;9.99;94.02
41706;BME280;27385;51.096;17.190;2022-09-13T06:03:02;99938.12;;;10.06;94.17
41706;BME280;27385;51.096;17.190;2022-09-13T06:05:34;99937.10;;;10.13;94.57
41706;BME280;27385;51.096;17.190;2022-09-13T06:08:06;99932.96;;;10.21;95.09
41706;BME280;27385;51.096;17.190;2022-09-13T06:10:38;99926.80;;;10.29;95.28
41706;BME280;27385;51.096;17.190;2022-09-13T06:13:10;99917.42;;;10.37;95.60
41706;BME280;27385;51.096;17.190;2022-09-13T06:15:42;99914.25;;;10.45;95.43
41706;BME280;27385;51.096;17.190;2022-09-13T06:18:13;99912.95;;;10.54;96.26
41706;BME280;27385;51.096;17.190;2022-09-13T06:20:45;99902.70;;;10.62;96.55
41706;BME280;27385;51.096;17.190;2022-09-13T06:23:17;99905.64;;;10.70;96.24
41706;BME280;27385;51.096;17.190;2022-09-13T06:25:49;99898.77;;;10.77;96.21
41706;BME280;27385;51.096;17.190;2022-09-13T06:28:21;99895.48;;;10.84;96.33
41706;BME280;27385;51.096;17.190;2022-09-13T06:30:57;99890.27;;;10.92;96.52
41706;BME280;27385;51.096;17.190;2022-09-13T06:33:29;99891.80;;;11.01;96.73
41706;BME280;27385;51.096;17.190;2022-09-13T06:36:04;99893.84;;;11.09;96.61
41706;BME280;27385;51.096;17.190;2022-09-13T06:38:37;99891.23;;;11.19;96.99
41706;BME280;27385;51.096;17.190;2022-09-13T06:41:10;99893.03;;;11.29;97.40
41706;BME280;27385;51.096;17.190;2022-09-13T06:43:42;99886.09;;;11.40;97.54
41706;BME280;27385;51.096;17.190;2022-09-13T06:46:16;99882.20;;;11.53;97.77
41706;BME280;27385;51.096;17.190;2022-09-13T06:48:49;99875.80;;;11.63;97.78
41706;BME280;27385;51.096;17.190;2022-09-13T06:51:23;99872.69;;;11.72;97.67
41706;BME280;27385;51.096;17.190;2022-09-13T06:53:57;99869.13;;;11.82;97.70
41706;BME280;27385;51.096;17.190;2022-09-13T06:56:31;99869.59;;;11.91;97.87
41706;BME280;27385;51.096;17.190;2022-09-13T06:59:06;99872.77;;;12.00;97.89
41706;BME280;27385;51.096;17.190;2022-09-13T07:01:39;99871.05;;;12.09;98.14
41706;BME280;27385;51.096;17.190;2022-09-13T07:04:13;99870.65;;;12.20;97.79
41706;BME280;27385;51.096;17.190;2022-09-13T07:06:46;99872.76;;;12.30;97.88
41706;BME280;27385;51.096;17.190;2022-09-13T07:09:19;99876.23;;;12.41;97.85
41706;BME280;27385;51.096;17.190;2022-09-13T07:11:52;99873.13;;;12.51;97.52
41706;BME280;27385;51.096;17.190;2022-09-13T07:14:25;99871.86;;;12.61;97.36
41706;BME280;27385;51.096;17.190;2022-09-13T07:16:58;99866.60;;;12.71;97.43
41706;BME280;27385;51.096;17.190;2022-09-13T07:19:29;99870.95;;;12.83;97.51
41706;BME280;27385;51.096;17.190;2022-09-13T07:22:03;99874.76;;;12.97;97.00
41706;BME280;27385;51.096;17.190;2022-09-13T07:24:35;99876.15;;;13.11;96.88
41706;BME280;27385;51.096;17.190;2022-09-13T07:27:06;99873.23;;;13.25;96.81
41706;BME280;27385;51.096;17.190;2022-09-13T07:29:38;99870.70;;;13.39;96.36
41706;BME280;27385;51.096;17.190;2022-09-13T07:32:09;99865.22;;;13.49;96.34
41706;BME280;27385;51.096;17.190;2022-09-13T07:34:40;99864.63;;;13.62;96.49
41706;BME280;27385;51.096;17.190;2022-09-13T07:37:11;99867.29;;;13.78;96.28
41706;BME280;27385;51.096;17.190;2022-09-13T07:39:43;99865.80;;;13.90;95.96
41706;BME280;27385;51.096;17.190;2022-09-13T07:42:14;99863.80;;;14.00;95.46
41706;BME280;27385;51.096;17.190;2022-09-13T07:44:45;99867.05;;;14.10;95.51
41706;BME280;27385;51.096;17.190;2022-09-13T07:47:17;99870.77;;;14.21;95.19
41706;BME280;27385;51.096;17.190;2022-09-13T07:49:49;99872.66;;;14.33;94.86
41706;BME280;27385;51.096;17.190;2022-09-13T07:52:20;99873.15;;;14.44;94.86
41706;BME280;27385;51.096;17.190;2022-09-13T07:54:52;99872.13;;;14.62;94.78
41706;BME280;27385;51.096;17.190;2022-09-13T07:57:23;99869.99;;;14.74;94.47
41706;BME280;27385;51.096;17.190;2022-09-13T07:59:54;99866.86;;;14.86;94.19
41706;BME280;27385;51.096;17.190;2022-09-13T08:02:26;99863.65;;;14.99;94.04
41706;BME280;27385;51.096;17.190;2022-09-13T08:04:58;99863.70;;;15.10;93.79
41706;BME280;27385;51.096;17.190;2022-09-13T08:07:29;99863.14;;;15.26;93.69
41706;BME280;27385;51.096;17.190;2022-09-13T08:10:01;99864.06;;;15.44;93.16
41706;BME280;27385;51.096;17.190;2022-09-13T08:12:33;99862.58;;;15.56;92.71
41706;BME280;27385;51.096;17.190;2022-09-13T08:15:05;99856.10;;;15.65;92.26
41706;BME280;27385;51.096;17.190;2022-09-13T08:17:36;99861.61;;;15.74;92.37
41706;BME280;27385;51.096;17.190;2022-09-13T08:20:09;99859.35;;;15.82;91.62
41706;BME280;27385;51.096;17.190;2022-09-13T08:22:40;99855.44;;;15.90;91.76
41706;BME280;27385;51.096;17.190;2022-09-13T08:25:11;99849.88;;;15.98;91.77
41706;BME280;27385;51.096;17.190;2022-09-13T08:27:43;99852.95;;;16.04;91.29
41706;BME280;27385;51.096;17.190;2022-09-13T08:30:14;99850.14;;;16.10;90.88
41706;BME280;27385;51.096;17.190;2022-09-13T08:32:46;99847.27;;;16.14;90.55
41706;BME280;27385;51.096;17.190;2022-09-13T08:35:19;99842.51;;;16.19;90.79
41706;BME280;27385;51.096;17.190;2022-09-13T08:37:51;99839.30;;;16.28;91.01
41706;BME280;27385;51.096;17.190;2022-09-13T08:40:23;99838.88;;;16.39;90.60
41706;BME280;27385;51.096;17.190;2022-09-13T08:43:00;99840.27;;;16.47;90.07
41706;BME280;27385;51.096;17.190;2022-09-13T08:45:35;99844.70;;;16.57;90.17
41706;BME280;27385;51.096;17.190;2022-09-13T08:48:13;99843.69;;;16.68;89.29
41706;BME280;27385;51.096;17.190;2022-09-13T08:50:48;99840.92;;;16.82;88.85
41706;BME280;27385;51.096;17.190;2022-09-13T08:53:27;99837.92;;;16.94;88.83
41706;BME280;27385;51.096;17.190;2022-09-13T08:56:04;99830.63;;;17.03;88.68
41706;BME280;27385;51.096;17.190;2022-09-13T08:59:01;99830.52;;;17.15;88.57
41706;BME280;27385;51.096;17.190;2022-09-13T09:01:43;99830.16;;;17.25;88.01
41706;BME280;27385;51.096;17.190;2022-09-13T09:04:31;99831.30;;;17.35;87.59
41706;BME280;27385;51.096;17.190;2022-09-13T09:07:08;99832.10;;;17.47;87.28
41706;BME280;27385;51.096;17.190;2022-09-13T09:09:45;99831.54;;;17.61;87.14
41706;BME280;27385;51.096;17.190;2022-09-13T09:12:24;99829.36;;;17.72;86.81
41706;BME280;27385;51.096;17.190;2022-09-13T09:15:16;99822.90;;;17.84;86.44
41706;BME280;27385;51.096;17.190;2022-09-13T09:17:56;99814.08;;;18.01;86.23
41706;BME280;27385;51.096;17.190;2022-09-13T09:20:35;99813.04;;;18.21;85.62
41706;BME280;27385;51.096;17.190;2022-09-13T09:23:16;99808.66;;;18.37;84.86
41706;BME280;27385;51.096;17.190;2022-09-13T09:25:51;99806.93;;;18.48;83.75
41706;BME280;27385;51.096;17.190;2022-09-13T09:28:26;99800.34;;;18.56;83.28
41706;BME280;27385;51.096;17.190;2022-09-13T09:31:04;99792.00;;;18.65;83.53
41706;BME280;27385;51.096;17.190;2022-09-13T09:36:39;99783.73;;;18.86;83.00
41706;BME280;27385;51.096;17.190;2022-09-13T09:39:13;99782.25;;;19.02;82.29
41706;BME280;27385;51.096;17.190;2022-09-13T09:41:46;99780.57;;;19.14;81.48
41706;BME280;27385;51.096;17.190;2022-09-13T09:44:23;99780.90;;;19.21;80.88
41706;BME280;27385;51.096;17.190;2022-09-13T09:47:01;99781.79;;;19.28;80.76
41706;BME280;27385;51.096;17.190;2022-09-13T09:49:38;99783.95;;;19.36;80.52
41706;BME280;27385;51.096;17.190;2022-09-13T09:52:34;99780.96;;;19.40;79.84
41706;BME280;27385;51.096;17.190;2022-09-13T09:55:16;99777.60;;;19.43;79.43
41706;BME280;27385;51.096;17.190;2022-09-13T09:57:53;99774.25;;;19.46;79.58
41706;BME280;27385;51.096;17.190;2022-09-13T10:00:27;99766.57;;;19.50;78.49
41706;BME280;27385;51.096;17.190;2022-09-13T10:03:01;99762.36;;;19.52;78.17
41706;BME280;27385;51.096;17.190;2022-09-13T10:05:35;99755.85;;;19.53;78.37
41706;BME280;27385;51.096;17.190;2022-09-13T10:08:19;99755.98;;;19.54;78.26
41706;BME280;27385;51.096;17.190;2022-09-13T10:10:55;99747.18;;;19.54;78.28
41706;BME280;27385;51.096;17.190;2022-09-13T10:13:28;99744.22;;;19.52;77.94
41706;BME280;27385;51.096;17.190;2022-09-13T10:16:02;99743.75;;;19.51;77.72
41706;BME280;27385;51.096;17.190;2022-09-13T10:18:35;99742.14;;;19.47;77.57
41706;BME280;27385;51.096;17.190;2022-09-13T10:21:20;99737.56;;;19.43;77.43
41706;BME280;27385;51.096;17.190;2022-09-13T10:24:19;99730.87;;;19.38;77.47
41706;BME280;27385;51.096;17.190;2022-09-13T10:26:52;99722.34;;;19.33;77.63
41706;BME280;27385;51.096;17.190;2022-09-13T10:29:24;99721.03;;;19.29;77.79
41706;BME280;27385;51.096;17.190;2022-09-13T10:31:57;99717.02;;;19.25;77.67
41706;BME280;27385;51.096;17.190;2022-09-13T10:34:35;99711.09;;;19.19;77.92
41706;BME280;27385;51.096;17.190;2022-09-13T10:37:14;99715.52;;;19.16;77.67
41706;BME280;27385;51.096;17.190;2022-09-13T10:39:57;99712.07;;;19.11;78.07
41706;BME280;27385;51.096;17.190;2022-09-13T10:42:30;99708.73;;;19.10;78.96
41706;BME280;27385;51.096;17.190;2022-09-13T10:45:03;99713.28;;;19.12;79.69
41706;BME280;27385;51.096;17.190;2022-09-13T10:47:45;99710.23;;;19.17;80.87
41706;BME280;27385;51.096;17.190;2022-09-13T10:50:23;99707.44;;;19.20;80.75
41706;BME280;27385;51.096;17.190;2022-09-13T10:52:56;99710.09;;;19.22;80.88
41706;BME280;27385;51.096;17.190;2022-09-13T10:55:32;99707.70;;;19.25;81.01
41706;BME280;27385;51.096;17.190;2022-09-13T10:58:18;99700.48;;;19.28;80.98
41706;BME280;27385;51.096;17.190;2022-09-13T11:01:11;99702.64;;;19.33;81.56
41706;BME280;27385;51.096;17.190;2022-09-13T11:06:50;99691.80;;;19.42;81.27
41706;BME280;27385;51.096;17.190;2022-09-13T11:09:32;99694.98;;;19.47;81.42
41706;BME280;27385;51.096;17.190;2022-09-13T11:12:10;99691.30;;;19.53;81.24
41706;BME280;27385;51.096;17.190;2022-09-13T11:14:53;99686.81;;;19.59;81.16
41706;BME280;27385;51.096;17.190;2022-09-13T11:17:37;99690.04;;;19.65;80.80
41706;BME280;27385;51.096;17.190;2022-09-13T11:20:28;99688.97;;;19.70;80.02
41706;BME280;27385;51.096;17.190;2022-09-13T11:23:30;99683.91;;;19.75;79.66
41706;BME280;27385;51.096;17.190;2022-09-13T11:26:22;99678.77;;;19.81;79.80
41706;BME280;27385;51.096;17.190;2022-09-13T11:29:04;99675.27;;;19.87;79.04
41706;BME280;27385;51.096;17.190;2022-09-13T11:31:45;99671.44;;;19.95;78.83
41706;BME280;27385;51.096;17.190;2022-09-13T11:34:31;99668.52;;;20.03;78.44
41706;BME280;27385;51.096;17.190;2022-09-13T11:37:17;99665.92;;;20.11;78.30
41706;BME280;27385;51.096;17.190;2022-09-13T11:40:01;99667.45;;;20.21;77.01
41706;BME280;27385;51.096;17.190;2022-09-13T11:42:42;99662.45;;;20.29;76.79
41706;BME280;27385;51.096;17.190;2022-09-13T11:45:23;99660.73;;;20.37;76.63
41706;BME280;27385;51.096;17.190;2022-09-13T11:48:12;99663.33;;;20.43;75.63
41706;BME280;27385;51.096;17.190;2022-09-13T11:50:56;99654.67;;;20.43;73.97
41706;BME280;27385;51.096;17.190;2022-09-13T11:53:52;99657.27;;;20.42;73.23
41706;BME280;27385;51.096;17.190;2022-09-13T11:56:30;99657.20;;;20.39;72.39
41706;BME280;27385;51.096;17.190;2022-09-13T11:59:12;99653.91;;;20.39;72.44
41706;BME280;27385;51.096;17.190;2022-09-13T12:01:53;99656.38;;;20.41;72.58
41706;BME280;27385;51.096;17.190;2022-09-13T12:04:30;99654.55;;;20.43;72.58
41706;BME280;27385;51.096;17.190;2022-09-13T12:07:06;99651.29;;;20.46;72.40
41706;BME280;27385;51.096;17.190;2022-09-13T12:09:46;99654.23;;;20.45;71.53
41706;BME280;27385;51.096;17.190;2022-09-13T12:12:23;99646.88;;;20.40;70.98
41706;BME280;27385;51.096;17.190;2022-09-13T12:15:02;99648.56;;;20.35;70.30
41706;BME280;27385;51.096;17.190;2022-09-13T12:17:38;99647.98;;;20.31;70.12
41706;BME280;27385;51.096;17.190;2022-09-13T12:20:17;99648.33;;;20.24;69.33
41706;BME280;27385;51.096;17.190;2022-09-13T12:22:51;99649.38;;;20.19;69.75
41706;BME280;27385;51.096;17.190;2022-09-13T12:25:27;99644.74;;;20.15;70.07
41706;BME280;27385;51.096;17.190;2022-09-13T12:28:05;99633.81;;;20.13;70.04
41706;BME280;27385;51.096;17.190;2022-09-13T12:30:43;99630.97;;;20.12;69.66
41706;BME280;27385;51.096;17.190;2022-09-13T12:33:18;99628.45;;;20.12;70.00
41706;BME280;27385;51.096;17.190;2022-09-13T12:39:17;99621.86;;;20.11;69.50
41706;BME280;27385;51.096;17.190;2022-09-13T12:42:13;99619.13;;;20.15;69.55
41706;BME280;27385;51.096;17.190;2022-09-13T12:45:01;99616.38;;;20.21;69.47
41706;BME280;27385;51.096;17.190;2022-09-13T12:47:59;99612.34;;;20.21;69.01
41706;BME280;27385;51.096;17.190;2022-09-13T12:51:10;99608.07;;;20.23;69.39
41706;BME280;27385;51.096;17.190;2022-09-13T12:54:11;99608.64;;;20.23;69.74
41706;BME280;27385;51.096;17.190;2022-09-13T12:56:56;99610.48;;;20.23;69.77
41706;BME280;27385;51.096;17.190;2022-09-13T12:59:53;99609.07;;;20.20;69.37
41706;BME280;27385;51.096;17.190;2022-09-13T13:02:32;99606.88;;;20.15;69.11
41706;BME280;27385;51.096;17.190;2022-09-13T13:05:17;99601.20;;;20.10;69.27
41706;BME280;27385;51.096;17.190;2022-09-13T13:07:55;99595.84;;;20.06;69.15
41706;BME280;27385;51.096;17.190;2022-09-13T13:10:30;99596.42;;;20.06;69.69
41706;BME280;27385;51.096;17.190;2022-09-13T13:13:18;99603.46;;;20.09;70.12
41706;BME280;27385;51.096;17.190;2022-09-13T13:16:21;99602.78;;;20.09;70.01
41706;BME280;27385;51.096;17.190;2022-09-13T13:18:55;99601.41;;;20.08;69.73
41706;BME280;27385;51.096;17.190;2022-09-13T13:21:38;99600.95;;;20.08;69.89
41706;BME280;27385;51.096;17.190;2022-09-13T13:27:42;99592.93;;;20.13;70.08
41706;BME280;27385;51.096;17.190;2022-09-13T13:33:47;99581.77;;;20.13;69.56
41706;BME280;27385;51.096;17.190;2022-09-13T13:36:26;99583.52;;;20.13;69.55
41706;BME280;27385;51.096;17.190;2022-09-13T13:38:59;99581.86;;;20.17;69.55
41706;BME280;27385;51.096;17.190;2022-09-13T13:41:46;99580.90;;;20.19;69.29
41706;BME280;27385;51.096;17.190;2022-09-13T13:45:12;99576.48;;;20.21;69.25
41706;BME280;27385;51.096;17.190;2022-09-13T13:48:08;99578.98;;;20.24;69.18
41706;BME280;27385;51.096;17.190;2022-09-13T13:53:52;99570.06;;;20.24;69.56
41706;BME280;27385;51.096;17.190;2022-09-13T13:59:15;99565.36;;;20.32;69.87
41706;BME280;27385;51.096;17.190;2022-09-13T14:01:52;99561.33;;;20.36;69.86
41706;BME280;27385;51.096;17.190;2022-09-13T14:04:50;99559.45;;;20.40;70.36
41706;BME280;27385;51.096;17.190;2022-09-13T14:10:38;99552.31;;;20.46;69.68